MMSD/SJD METAR and TAF weather

Enter ICAO airport designator
Station Type Date Time Source
MMSD METAR 2021/01/22 04:49 UTC NOAA

MMSD 220449Z 26006KT 12SM SCT200 20/16 A3006 RMK 8/004 AC


Station Type Date Time Source
MMSD Decoded METAR 2021/01/22 04:49 UTC NOAA

San Jose Del Cabo , Mexico (MMSD) 23-09N 109-42W
Jan 21, 2021 - 11:49 PM EST / 2021.01.22 0449 UTC
Wind: from the W (260 degrees) at 7 MPH (6 KT):0
Visibility: 12 mile(s):0
Sky conditions: partly cloudy
Temperature: 68 F (20 C)
Dew Point: 60 F (16 C)
Relative Humidity: 77%
Pressure (altimeter): 30.06 in. Hg (1017 hPa)
ob: MMSD 220449Z 26006KT 12SM SCT200 20/16 A3006 RMK 8/004 AC
cycle: 5

Station Type Date Time Source
MMSD TAF 2021/01/22 06:57 UTC NOAA

TAF TAF MMSD 220355Z 2206/2306 30005KT P6SM SCT030 BKN250
FM221800 30010KT P6SM SCT030 BKN100 PROB40 2220/2224 5SM RA
FM230200 30005KT P6SM SCT020 BKN200

Example: see airport list